Time;durP1;ratioP1;P1;durP2;ratioP2;P2;SDS_P1;SDS_P2;PMS_P1;PMS_P2;Temp;Humidity;BMP_temperature;BMP_pressure;BME280_temperature;BME280_humidity;BME280_pressure;Samples;Min_cycle;Max_cycle;Signal;HPM_P1;HPM_P2
2022/01/01 00:00:17;;;;;;;40.22;7.47;;;8.90;99.90;;;;;;6281334;22;20072;-92
2022/01/01 00:06:33;;;;;;;24.88;6.47;;;8.90;99.90;;;;;;6285202;22;19910;-94
2022/01/01 09:20:04;;;;;;;30.92;10.82;;;9.10;99.90;;;;;;6278359;22;20033;-91
2022/01/01 09:22:31;;;;;;;35.25;11.07;;;9.10;99.90;;;;;;6281930;22;20019;-90
2022/01/01 09:24:58;;;;;;;36.97;11.07;;;9.10;99.90;;;;;;6309428;22;20030;-91
2022/01/01 09:27:25;;;;;;;29.30;10.93;;;9.10;99.90;;;;;;6282050;22;20019;-90
2022/01/01 09:29:52;;;;;;;33.47;9.43;;;9.20;99.90;;;;;;6256505;22;20132;-90
2022/01/01 09:32:20;;;;;;;38.60;11.45;;;9.20;99.90;;;;;;6256779;22;20019;-90
2022/01/01 09:34:47;;;;;;;37.00;10.40;;;9.20;99.90;;;;;;6282063;22;20016;-90
2022/01/01 09:37:14;;;;;;;31.38;10.00;;;9.20;99.90;;;;;;6281593;22;20106;-91
2022/01/01 09:39:41;;;;;;;43.15;11.98;;;9.20;99.90;;;;;;6258441;22;20016;-87
2022/01/01 09:42:11;;;;;;;33.92;10.68;;;9.30;99.90;;;;;;6260361;22;20015;-91
2022/01/01 09:45:13;;;;;;;37.58;10.30;;;9.30;99.90;;;;;;6308351;22;20438;-94
2022/01/01 09:53:02;;;;;;;25.98;9.40;;;9.20;99.90;;;;;;6295616;22;20057;-95
2022/01/01 09:56:31;;;;;;;36.35;9.48;;;9.20;99.90;;;;;;6177518;22;20026;-94
2022/01/01 11:20:43;;;;;;;37.08;14.88;;;10.80;99.90;;;;;;6310383;22;20080;-94
2022/01/01 11:32:23;;;;;;;37.10;16.02;;;10.60;99.90;;;;;;6164506;22;20079;-91
2022/01/01 11:38:45;;;;;;;37.13;17.88;;;11.20;99.90;;;;;;6271122;22;20122;-93
2022/01/01 11:41:30;;;;;;;;;;;;;;;;;;;;;
2022/01/01 11:45:13;;;;;;;39.10;16.85;;;11.00;99.90;;;;;;6281840;22;20423;-94
2022/01/01 11:48:16;;;;;;;45.80;17.75;;;10.90;99.90;;;;;;6254373;22;20016;-91
2022/01/01 11:50:57;;;;;;;46.45;16.50;;;11.00;99.90;;;;;;6253219;22;20312;-93
2022/01/01 11:53:36;;;;;;;53.85;17.50;;;11.20;99.90;;;;;;6278039;22;20122;-94
2022/01/01 13:01:29;;;;;;;44.08;15.13;;;11.20;99.90;;;;;;6281887;22;20094;-93
2022/01/01 13:04:07;;;;;;;43.92;15.55;;;11.30;99.90;;;;;;6254088;22;20055;-92
2022/01/01 13:06:38;;;;;;;48.08;16.83;;;11.40;99.90;;;;;;6253102;22;20026;-92
2022/01/01 13:09:12;;;;;;;51.28;17.73;;;11.30;99.90;;;;;;6247615;23;20348;-93
2022/01/01 13:11:44;;;;;;;43.15;16.52;;;11.30;99.90;;;;;;6224544;23;20016;-94
2022/01/01 13:15:15;;;;;;;51.42;16.40;;;11.30;99.90;;;;;;6230501;23;20028;-94
2022/01/01 13:18:34;;;;;;;40.80;16.20;;;11.40;99.90;;;;;;6228324;23;20024;-92
2022/01/01 13:21:20;;;;;;;54.00;15.55;;;11.30;99.90;;;;;;6228791;23;20095;-93
2022/01/01 13:29:14;;;;;;;54.28;15.52;;;11.40;99.90;;;;;;6252030;23;20015;-96
2022/01/01 13:35:04;;;;;;;44.78;16.35;;;11.30;99.90;;;;;;6224199;23;20023;-92
2022/01/01 13:38:02;;;;;;;46.20;16.20;;;11.20;99.90;;;;;;6249815;23;20016;-93
2022/01/01 13:41:19;;;;;;;38.50;14.20;;;11.10;99.90;;;;;;6143408;23;20025;-92
2022/01/01 13:44:42;;;;;;;37.00;14.68;;;11.10;99.90;;;;;;6211299;23;20121;-94
2022/01/01 13:47:34;;;;;;;35.38;14.02;;;11.20;99.90;;;;;;6249204;23;20012;-93
2022/01/01 13:50:32;;;;;;;;;;;;;;;;;;;;;
2022/01/01 17:01:59;;;;;;;;;;;;;;;;;;;;;
2022/01/01 19:48:28;;;;;;;13.90;4.07;;;10.70;99.90;;;;;;6276729;22;20104;-92
2022/01/01 21:58:16;;;;;;;16.67;5.05;;;10.20;99.90;;;;;;6275234;22;20074;-91
2022/01/01 22:01:12;;;;;;;15.05;4.90;;;10.20;99.90;;;;;;6199685;23;20016;-91
2022/01/01 22:04:22;;;;;;;;;;;;;;;;;;;;;
2022/01/01 22:07:56;;;;;;;16.30;5.60;;;10.20;99.90;;;;;;6219324;22;20031;-92
2022/01/01 22:11:23;;;;;;;20.13;5.85;;;10.20;99.90;;;;;;6201936;23;20019;-93
2022/01/01 22:31:52;;;;;;;14.18;4.90;;;10.20;99.90;;;;;;6015223;23;20107;-94
2022/01/01 22:35:44;;;;;;;16.95;5.25;;;10.10;99.90;;;;;;5985054;23;20024;-94
2022/01/01 22:39:41;;;;;;;16.80;5.00;;;10.10;99.90;;;;;;6002646;23;20008;-95
2022/01/01 22:43:23;;;;;;;15.30;5.15;;;10.10;99.90;;;;;;6009562;23;20607;-94
2022/01/01 22:47:01;;;;;;;18.73;6.05;;;10.10;99.90;;;;;;6010340;23;20106;-96
2022/01/01 22:54:23;;;;;;;20.80;5.20;;;10.10;99.90;;;;;;5922896;24;20021;-95
2022/01/01 22:57:16;;;;;;;11.35;4.07;;;10.10;99.90;;;;;;6013128;23;20467;-94
2022/01/01 23:00:56;;;;;;;12.45;4.95;;;10.10;99.90;;;;;;5994737;23;20130;-95
2022/01/01 23:04:27;;;;;;;16.35;4.53;;;10.10;99.90;;;;;;6038715;23;20029;-93
2022/01/01 23:07:55;;;;;;;15.23;4.82;;;10.10;99.90;;;;;;6099805;23;20093;-93
2022/01/01 23:11:30;;;;;;;11.68;4.57;;;10.10;99.90;;;;;;6023944;23;20066;-96
2022/01/01 23:14:36;;;;;;;16.88;4.85;;;10.10;99.90;;;;;;6022164;23;20027;-93
2022/01/01 23:22:32;;;;;;;14.20;4.75;;;10.10;99.90;;;;;;6044094;23;20519;-94
2022/01/01 23:26:05;;;;;;;19.35;5.13;;;10.10;99.90;;;;;;6075436;23;20041;-94
2022/01/01 23:32:59;;;;;;;16.17;5.00;;;10.10;99.90;;;;;;6159468;23;20022;-93
2022/01/01 23:36:01;;;;;;;16.83;6.20;;;10.00;99.90;;;;;;6154241;23;20104;-94
2022/01/01 23:39:24;;;;;;;19.60;4.85;;;10.00;99.90;;;;;;6130020;23;20095;-94
2022/01/01 23:42:20;;;;;;;20.42;6.00;;;10.00;99.90;;;;;;6196096;23;20091;-93
2022/01/01 23:45:33;;;;;;;26.27;5.80;;;10.00;99.90;;;;;;6199080;23;20468;-94
2022/01/01 23:49:38;;;;;;;16.38;4.85;;;10.00;99.90;;;;;;6217213;23;20016;-93
2022/01/01 23:52:58;;;;;;;21.65;5.68;;;10.00;99.90;;;;;;6221469;23;20016;-93
2022/01/01 23:56:04;;;;;;;21.52;5.38;;;10.00;99.90;;;;;;6198645;23;20395;-93
